Time;durP1;ratioP1;P1;durP2;ratioP2;P2;SDS_P1;SDS_P2;PMS_P1;PMS_P2;Temp;Humidity;BMP_temperature;BMP_pressure;BME280_temperature;BME280_humidity;BME280_pressure;Samples;Min_cycle;Max_cycle;Signal;HPM_P1;HPM_P2
2021/11/07 00:06:40;;;;;;;6.38;3.30;;;10.30;90.90;;;;;;5078925;28;20016;-71
2021/11/07 00:09:57;;;;;;;6.38;3.03;;;10.20;90.60;;;;;;5079210;28;20024;-72
2021/11/07 00:12:01;;;;;;;6.03;3.05;;;10.20;90.70;;;;;;5073258;28;20041;-72
2021/11/07 00:14:27;;;;;;;7.88;3.33;;;10.20;91.00;;;;;;5078764;28;20029;-72
2021/11/07 00:16:55;;;;;;;5.60;2.78;;;10.20;91.10;;;;;;5078361;28;20024;-72
2021/11/07 00:19:35;;;;;;;7.90;3.05;;;10.20;91.30;;;;;;5078591;28;20028;-72
2021/11/07 00:38:14;;;;;;;8.32;3.78;;;10.40;91.40;;;;;;5069329;28;20055;-72
2021/11/07 00:40:52;;;;;;;6.03;3.30;;;10.50;91.50;;;;;;5077733;28;20028;-72
2021/11/07 00:43:31;;;;;;;7.72;3.70;;;10.50;91.40;;;;;;5078050;28;20035;-72
2021/11/07 00:48:34;;;;;;;5.97;2.90;;;10.50;91.20;;;;;;5078243;28;20031;-72
2021/11/07 00:51:13;;;;;;;8.15;3.40;;;10.60;91.40;;;;;;5073475;28;20411;-72
2021/11/07 00:54:02;;;;;;;9.23;4.30;;;10.60;91.50;;;;;;5077378;28;20154;-72
2021/11/07 00:56:36;;;;;;;7.40;4.65;;;10.50;91.20;;;;;;5076632;28;20130;-72
2021/11/07 01:01:41;;;;;;;7.75;2.97;;;10.60;91.10;;;;;;5076713;28;20024;-72
2021/11/07 01:04:11;;;;;;;6.97;3.00;;;10.60;91.20;;;;;;5077859;28;20120;-72
2021/11/07 01:06:37;;;;;;;5.53;3.08;;;10.60;91.40;;;;;;5077428;28;20042;-72
2021/11/07 01:09:04;;;;;;;8.18;3.60;;;10.60;91.30;;;;;;5077221;28;20017;-72
2021/11/07 01:11:30;;;;;;;8.77;3.40;;;10.60;91.20;;;;;;5077504;28;20047;-71
2021/11/07 01:13:57;;;;;;;7.85;3.50;;;10.60;91.10;;;;;;5077163;28;20052;-72
2021/11/07 01:16:23;;;;;;;7.13;3.53;;;10.70;91.30;;;;;;5077408;28;20051;-71
2021/11/07 01:18:49;;;;;;;10.35;3.67;;;10.60;91.20;;;;;;5077715;28;20031;-72
2021/11/07 01:21:17;;;;;;;6.00;3.20;;;10.60;91.50;;;;;;5064057;28;20022;-72
2021/11/07 01:23:54;;;;;;;5.13;3.00;;;10.70;91.20;;;;;;5077321;28;20056;-72
2021/11/07 01:28:59;;;;;;;7.83;3.13;;;10.70;91.20;;;;;;5077789;28;20043;-72
2021/11/07 01:31:26;;;;;;;8.27;4.10;;;10.70;91.00;;;;;;5077313;28;20395;-72
2021/11/07 01:33:55;;;;;;;8.02;2.92;;;10.70;91.00;;;;;;5077329;28;20021;-72
2021/11/07 01:44:09;;;;;;;8.68;2.90;;;10.70;91.20;;;;;;5074413;28;20021;-72
2021/11/07 01:46:38;;;;;;;6.32;2.67;;;10.80;91.40;;;;;;5076592;28;20070;-71
2021/11/07 01:49:26;;;;;;;6.53;3.33;;;10.80;91.40;;;;;;5076757;28;20019;-71
2021/11/07 01:51:59;;;;;;;6.72;2.63;;;10.80;91.50;;;;;;5077046;28;20020;-72
2021/11/07 01:54:34;;;;;;;5.97;2.78;;;10.80;91.30;;;;;;5077316;28;20479;-72
2021/11/07 01:57:01;;;;;;;6.38;2.88;;;10.80;91.30;;;;;;5076838;28;20078;-72
2021/11/07 01:59:26;;;;;;;7.68;2.50;;;10.90;91.60;;;;;;5077330;28;20017;-72
2021/11/07 02:01:59;;;;;;;6.00;2.40;;;10.90;91.70;;;;;;5076342;28;20165;-73
2021/11/07 02:04:25;;;;;;;6.43;3.10;;;10.90;91.70;;;;;;5076809;28;20040;-72
2021/11/07 02:06:51;;;;;;;10.10;2.72;;;10.90;91.80;;;;;;5076870;28;20025;-72
2021/11/07 02:09:17;;;;;;;7.25;2.58;;;11.00;92.00;;;;;;5076854;28;20107;-71
2021/11/07 02:11:43;;;;;;;6.75;3.05;;;11.00;92.30;;;;;;5076959;28;20055;-72
2021/11/07 02:14:10;;;;;;;5.28;2.20;;;11.00;92.50;;;;;;5076967;28;20033;-71
2021/11/07 02:16:36;;;;;;;6.95;2.85;;;11.00;92.50;;;;;;5076803;28;20016;-72
2021/11/07 02:19:03;;;;;;;5.15;2.45;;;11.00;92.70;;;;;;5077003;28;20483;-72
2021/11/07 02:21:29;;;;;;;5.00;2.13;;;11.00;92.90;;;;;;5063245;28;20033;-72
2021/11/07 02:23:55;;;;;;;5.88;2.40;;;11.00;92.70;;;;;;5076677;28;20028;-72
2021/11/07 02:26:20;;;;;;;8.85;2.92;;;10.90;92.70;;;;;;5074517;28;20025;-72
2021/11/07 02:28:49;;;;;;;5.55;2.60;;;11.00;92.90;;;;;;5076747;28;20021;-72
2021/11/07 02:31:18;;;;;;;6.75;2.60;;;11.00;93.00;;;;;;5076675;28;20025;-72
2021/11/07 02:33:45;;;;;;;5.85;2.50;;;11.00;92.80;;;;;;5076530;28;20035;-72
2021/11/07 02:36:15;;;;;;;7.40;2.72;;;11.00;93.20;;;;;;5075303;28;20470;-72
2021/11/07 02:38:41;;;;;;;5.70;2.40;;;11.00;93.10;;;;;;5077070;28;20052;-72
2021/11/07 02:41:08;;;;;;;8.13;2.35;;;11.00;93.20;;;;;;5076541;28;20486;-72
2021/11/07 02:43:43;;;;;;;9.60;2.58;;;11.00;93.10;;;;;;5076487;28;20036;-72
2021/11/07 02:46:15;;;;;;;7.80;2.85;;;11.00;93.30;;;;;;5076154;28;20024;-72
2021/11/07 02:48:42;;;;;;;7.40;2.92;;;11.00;93.70;;;;;;5076116;28;20162;-72
2021/11/07 02:51:08;;;;;;;5.50;2.50;;;11.00;93.80;;;;;;5076794;28;20063;-72
2021/11/07 02:53:34;;;;;;;8.68;3.88;;;11.00;93.80;;;;;;5076412;28;20033;-71
2021/11/07 02:56:00;;;;;;;7.75;2.38;;;10.90;93.80;;;;;;5076339;28;20391;-71
2021/11/07 02:58:25;;;;;;;5.90;2.65;;;10.90;93.70;;;;;;5077422;28;20043;-71
2021/11/07 03:00:52;;;;;;;4.97;3.00;;;11.00;94.00;;;;;;5079721;28;20471;-72
2021/11/07 03:03:18;;;;;;;7.88;3.22;;;11.00;94.50;;;;;;5079657;28;20085;-71
2021/11/07 03:05:44;;;;;;;10.35;3.75;;;10.90;94.00;;;;;;5079073;28;20029;-72
2021/11/07 03:08:11;;;;;;;8.52;3.10;;;10.90;93.90;;;;;;5080086;28;20460;-71
2021/11/07 03:10:36;;;;;;;10.32;5.55;;;11.00;94.00;;;;;;5078691;28;20017;-71
2021/11/07 03:13:13;;;;;;;9.95;3.30;;;10.90;93.80;;;;;;5079682;28;20463;-71
2021/11/07 03:15:40;;;;;;;5.55;3.00;;;11.00;94.00;;;;;;5079688;28;20035;-71
2021/11/07 03:18:12;;;;;;;7.15;3.10;;;11.00;94.00;;;;;;5079539;28;20073;-72
2021/11/07 03:20:39;;;;;;;5.88;3.25;;;11.00;94.20;;;;;;5070773;28;20025;-71
2021/11/07 03:23:06;;;;;;;6.72;2.90;;;11.00;94.00;;;;;;5075983;28;20029;-71
2021/11/07 03:25:33;;;;;;;6.75;3.28;;;11.00;94.10;;;;;;5079411;28;20020;-72
2021/11/07 03:27:59;;;;;;;8.30;2.78;;;11.00;94.00;;;;;;5077625;28;20422;-71
2021/11/07 03:30:46;;;;;;;5.38;2.60;;;11.00;94.00;;;;;;5079494;28;20061;-71
2021/11/07 03:33:25;;;;;;;5.72;2.50;;;11.00;93.70;;;;;;5078006;28;20546;-72
2021/11/07 03:35:51;;;;;;;7.32;3.08;;;11.00;94.00;;;;;;5079370;28;20086;-72
2021/11/07 03:38:17;;;;;;;5.32;2.75;;;11.00;94.20;;;;;;5079636;28;20372;-71
2021/11/07 03:40:43;;;;;;;6.30;3.20;;;11.00;94.10;;;;;;5079258;28;20036;-71
2021/11/07 03:43:10;;;;;;;7.57;2.63;;;11.00;94.20;;;;;;5079419;28;20021;-72
2021/11/07 03:45:36;;;;;;;6.88;2.75;;;11.00;94.00;;;;;;5078792;28;20021;-72
2021/11/07 03:48:03;;;;;;;6.50;2.83;;;11.00;94.20;;;;;;5078935;28;20093;-72
2021/11/07 03:50:29;;;;;;;8.27;2.88;;;11.00;94.40;;;;;;5079346;28;20032;-72
2021/11/07 03:52:56;;;;;;;9.63;2.72;;;11.10;94.60;;;;;;5079452;28;20024;-72
2021/11/07 03:55:23;;;;;;;5.45;2.45;;;11.00;94.50;;;;;;5079095;28;20060;-71
2021/11/07 03:57:49;;;;;;;7.05;2.38;;;11.00;94.60;;;;;;5079044;28;20090;-71
2021/11/07 04:00:19;;;;;;;7.13;2.40;;;11.00;94.20;;;;;;5079231;28;20025;-72
2021/11/07 04:02:46;;;;;;;6.40;2.95;;;11.10;94.30;;;;;;5078554;28;20037;-71
2021/11/07 04:05:12;;;;;;;7.22;2.65;;;11.10;94.60;;;;;;5079012;28;20046;-71
2021/11/07 04:07:40;;;;;;;8.13;3.00;;;11.10;94.40;;;;;;5079169;28;20108;-71
2021/11/07 04:10:08;;;;;;;7.10;3.38;;;11.10;94.30;;;;;;5078102;28;20028;-71
2021/11/07 04:12:34;;;;;;;9.73;2.67;;;11.20;94.60;;;;;;5078801;28;20039;-71
2021/11/07 04:15:00;;;;;;;6.70;3.17;;;11.20;94.60;;;;;;5078937;28;20483;-72
2021/11/07 04:17:26;;;;;;;6.72;2.72;;;11.20;94.70;;;;;;5078772;28;20029;-72
2021/11/07 04:19:51;;;;;;;6.78;2.65;;;11.20;94.70;;;;;;5075838;28;20365;-72
2021/11/07 04:22:17;;;;;;;7.70;3.33;;;11.20;94.70;;;;;;5078268;28;20037;-71
2021/11/07 04:24:43;;;;;;;9.85;3.08;;;11.20;94.90;;;;;;5078598;28;20457;-71
2021/11/07 04:27:09;;;;;;;6.70;3.45;;;11.20;94.90;;;;;;5076713;28;20036;-72
2021/11/07 04:29:35;;;;;;;7.60;2.70;;;11.20;94.80;;;;;;5078711;28;20024;-72
2021/11/07 04:32:02;;;;;;;9.43;3.22;;;11.20;95.00;;;;;;5078003;28;20032;-72
2021/11/07 04:34:28;;;;;;;8.88;3.25;;;11.20;95.00;;;;;;5078074;28;20466;-72
2021/11/07 04:36:54;;;;;;;8.35;3.00;;;11.20;94.90;;;;;;5078461;28;20088;-72
2021/11/07 04:39:23;;;;;;;8.18;2.95;;;11.30;95.30;;;;;;5078504;28;20029;-71
2021/11/07 04:41:49;;;;;;;9.63;3.88;;;11.30;95.40;;;;;;5078686;28;20025;-71
2021/11/07 04:44:15;;;;;;;7.95;3.30;;;11.30;95.20;;;;;;5077497;28;20028;-71
2021/11/07 04:46:41;;;;;;;11.52;3.30;;;11.30;95.30;;;;;;5078108;28;20021;-71
2021/11/07 04:49:07;;;;;;;9.02;3.42;;;11.30;95.40;;;;;;5078287;28;20055;-71
2021/11/07 04:51:33;;;;;;;8.90;3.08;;;11.40;95.60;;;;;;5078319;28;20035;-72
2021/11/07 04:53:59;;;;;;;5.93;2.65;;;11.30;95.50;;;;;;5077990;28;20141;-71
2021/11/07 04:56:25;;;;;;;11.02;3.00;;;11.40;95.60;;;;;;5077755;28;20024;-72
2021/11/07 04:58:51;;;;;;;9.07;3.00;;;11.40;95.60;;;;;;5078133;28;20037;-72
2021/11/07 05:01:18;;;;;;;8.35;3.97;;;11.40;95.70;;;;;;5077822;28;20027;-72
2021/11/07 05:03:44;;;;;;;9.60;2.85;;;11.30;95.80;;;;;;5077847;28;20111;-72
2021/11/07 05:06:10;;;;;;;6.25;3.22;;;11.40;95.90;;;;;;5078042;28;20040;-72
2021/11/07 05:08:36;;;;;;;8.15;3.35;;;11.40;96.00;;;;;;5077019;28;20094;-72
2021/11/07 05:11:02;;;;;;;8.45;3.17;;;11.40;96.20;;;;;;5077806;28;20079;-71
2021/11/07 05:13:28;;;;;;;5.95;2.80;;;11.40;96.30;;;;;;5077719;28;20044;-72
2021/11/07 05:15:56;;;;;;;9.85;3.47;;;11.40;96.20;;;;;;5077483;28;20047;-71
2021/11/07 05:18:23;;;;;;;8.63;3.08;;;11.40;96.60;;;;;;5077218;28;20056;-72
2021/11/07 05:20:49;;;;;;;9.75;3.35;;;11.40;96.50;;;;;;5066503;28;20613;-72
2021/11/07 05:23:16;;;;;;;7.95;3.45;;;11.40;96.60;;;;;;5090567;28;20066;-72
2021/11/07 05:25:43;;;;;;;10.07;3.33;;;11.50;96.70;;;;;;5077303;28;20017;-72
2021/11/07 05:28:09;;;;;;;11.80;3.35;;;11.40;96.60;;;;;;5075016;28;20020;-71
2021/11/07 05:30:36;;;;;;;7.43;3.03;;;11.40;96.80;;;;;;5076401;28;20428;-72
2021/11/07 05:33:02;;;;;;;9.90;3.67;;;11.40;96.90;;;;;;5077088;28;20024;-72
2021/11/07 05:35:28;;;;;;;9.88;2.53;;;11.40;96.70;;;;;;5076914;28;20710;-72
2021/11/07 05:37:54;;;;;;;10.07;2.90;;;11.50;97.10;;;;;;5077501;28;20036;-72
2021/11/07 05:40:20;;;;;;;6.57;2.47;;;11.50;97.00;;;;;;5076695;28;20372;-71
2021/11/07 05:42:47;;;;;;;7.57;2.20;;;11.40;96.50;;;;;;5076887;28;20039;-72
2021/11/07 05:45:14;;;;;;;9.75;2.60;;;11.40;96.60;;;;;;5077010;28;20021;-71
2021/11/07 05:47:39;;;;;;;7.40;2.53;;;11.50;96.70;;;;;;5076950;28;20024;-71
2021/11/07 05:50:06;;;;;;;6.90;2.22;;;11.50;96.80;;;;;;5077401;28;20028;-72
2021/11/07 05:52:33;;;;;;;4.28;2.30;;;11.60;96.90;;;;;;5076949;28;20047;-72
2021/11/07 05:54:58;;;;;;;9.13;2.47;;;11.50;96.70;;;;;;5077298;28;20024;-71
2021/11/07 05:57:25;;;;;;;9.63;2.13;;;11.50;96.80;;;;;;5076860;28;20047;-71
2021/11/07 05:59:51;;;;;;;7.45;2.17;;;11.50;96.70;;;;;;5077457;28;20024;-72
2021/11/07 06:02:17;;;;;;;7.18;2.40;;;11.50;96.50;;;;;;5076440;28;20039;-72
2021/11/07 06:04:43;;;;;;;3.65;1.70;;;11.50;96.40;;;;;;5077370;28;20050;-71
2021/11/07 06:07:09;;;;;;;5.13;2.03;;;11.60;96.60;;;;;;5077258;28;20437;-71
2021/11/07 06:09:36;;;;;;;6.55;2.15;;;11.60;96.60;;;;;;5077211;28;20021;-72
2021/11/07 06:12:02;;;;;;;4.57;2.10;;;11.60;96.90;;;;;;5076614;28;20032;-72
2021/11/07 06:14:28;;;;;;;4.20;1.90;;;11.70;97.20;;;;;;5075934;28;20024;-71
2021/11/07 06:16:55;;;;;;;6.05;2.10;;;11.70;97.00;;;;;;5076963;28;20025;-72
2021/11/07 06:19:20;;;;;;;5.53;2.10;;;11.70;96.80;;;;;;5077123;28;20111;-72
2021/11/07 06:21:46;;;;;;;5.20;2.05;;;11.70;96.80;;;;;;5063737;28;20067;-72
2021/11/07 06:24:15;;;;;;;5.25;1.90;;;11.70;96.90;;;;;;5076958;28;20017;-71
2021/11/07 06:26:41;;;;;;;6.47;1.98;;;11.70;97.00;;;;;;5074584;28;20021;-72
2021/11/07 06:29:07;;;;;;;3.40;1.90;;;11.70;96.80;;;;;;5076557;28;20023;-72
2021/11/07 06:31:33;;;;;;;7.55;1.95;;;11.80;97.20;;;;;;5076505;28;20052;-72
2021/11/07 06:33:59;;;;;;;5.35;1.90;;;11.70;96.80;;;;;;5078785;28;20036;-72
2021/11/07 06:36:25;;;;;;;5.97;1.90;;;11.70;96.90;;;;;;5080450;28;20101;-71
2021/11/07 06:38:51;;;;;;;4.78;1.90;;;11.80;97.10;;;;;;5080810;28;20033;-72
2021/11/07 06:41:17;;;;;;;4.28;1.80;;;11.70;96.90;;;;;;5080712;28;20107;-71
2021/11/07 06:43:43;;;;;;;4.47;1.85;;;11.70;97.00;;;;;;5080566;28;20025;-72
2021/11/07 06:46:09;;;;;;;4.05;1.90;;;11.70;97.10;;;;;;5080609;28;20028;-71
2021/11/07 06:48:36;;;;;;;5.57;2.03;;;11.70;97.00;;;;;;5080776;28;20025;-72
2021/11/07 06:51:02;;;;;;;3.38;1.70;;;11.80;97.30;;;;;;5080096;28;20047;-72
2021/11/07 06:53:28;;;;;;;3.88;1.80;;;11.80;97.20;;;;;;5080542;28;20511;-71
2021/11/07 06:55:54;;;;;;;6.78;2.15;;;11.70;97.20;;;;;;5067172;28;20161;-72
2021/11/07 06:58:21;;;;;;;5.47;1.83;;;11.80;97.10;;;;;;5080514;28;20024;-72
2021/11/07 07:00:47;;;;;;;8.07;1.70;;;11.80;97.10;;;;;;5080223;28;20483;-72
2021/11/07 07:03:13;;;;;;;4.45;1.95;;;11.80;97.40;;;;;;5080291;28;20024;-71
2021/11/07 07:05:39;;;;;;;6.70;2.40;;;11.80;97.50;;;;;;5080458;28;20028;-72
2021/11/07 07:08:16;;;;;;;4.22;1.98;;;11.80;97.40;;;;;;5080209;28;20020;-71
2021/11/07 07:10:53;;;;;;;5.05;2.05;;;11.80;97.40;;;;;;5080185;28;20391;-72
2021/11/07 07:13:25;;;;;;;8.55;2.55;;;11.80;97.50;;;;;;5079433;28;20039;-72
2021/11/07 07:16:03;;;;;;;6.40;2.10;;;11.80;97.40;;;;;;5079936;28;20044;-71
2021/11/07 07:21:29;;;;;;;8.45;2.63;;;11.80;97.10;;;;;;5066644;28;20057;-72
2021/11/07 07:31:51;;;;;;;4.63;2.50;;;11.90;97.20;;;;;;5067715;28;20040;-71
2021/11/07 07:34:23;;;;;;;4.32;2.53;;;11.90;97.20;;;;;;5079688;28;20021;-72
2021/11/07 07:36:52;;;;;;;5.95;2.70;;;11.90;97.30;;;;;;5079620;28;20518;-72
2021/11/07 07:39:18;;;;;;;4.70;2.17;;;12.00;97.40;;;;;;5079549;28;20056;-71
2021/11/07 07:41:44;;;;;;;4.60;2.33;;;12.00;97.30;;;;;;5079870;28;20036;-71
2021/11/07 07:44:11;;;;;;;7.22;3.80;;;12.00;97.40;;;;;;5079081;28;20012;-72
2021/11/07 07:46:41;;;;;;;6.35;3.63;;;12.00;97.70;;;;;;5078492;28;20029;-72
2021/11/07 07:49:08;;;;;;;8.75;3.80;;;12.00;97.60;;;;;;5079429;28;20025;-71
2021/11/07 07:51:35;;;;;;;7.88;3.25;;;12.10;97.60;;;;;;5079703;28;20024;-71
2021/11/07 07:54:03;;;;;;;6.00;3.80;;;12.00;97.40;;;;;;5077471;28;20031;-72
2021/11/07 07:56:30;;;;;;;8.38;4.13;;;12.10;97.70;;;;;;5079637;28;20476;-71
2021/11/07 07:58:56;;;;;;;6.63;3.88;;;12.20;97.80;;;;;;5079032;28;20103;-72
2021/11/07 08:01:23;;;;;;;8.05;3.97;;;12.10;97.50;;;;;;5078660;28;20039;-72
2021/11/07 08:03:50;;;;;;;7.28;4.03;;;12.10;97.30;;;;;;5079058;28;20025;-72
2021/11/07 08:06:16;;;;;;;7.18;4.22;;;12.20;97.30;;;;;;5079395;28;20074;-72
2021/11/07 08:08:42;;;;;;;8.88;4.55;;;12.30;97.50;;;;;;5078842;28;20020;-72
2021/11/07 08:11:08;;;;;;;5.93;3.55;;;12.30;97.30;;;;;;5078348;28;20141;-72
2021/11/07 08:13:34;;;;;;;6.10;3.63;;;12.40;97.40;;;;;;5077421;28;20020;-72
2021/11/07 08:16:00;;;;;;;6.20;3.45;;;12.50;97.50;;;;;;5079000;28;20040;-72
2021/11/07 08:18:26;;;;;;;5.93;3.28;;;12.60;97.70;;;;;;5079040;28;20056;-71
2021/11/07 08:20:52;;;;;;;5.50;3.15;;;12.70;97.90;;;;;;5067737;28;20032;-71
2021/11/07 08:23:22;;;;;;;6.82;4.22;;;12.80;97.50;;;;;;5076206;28;20049;-71
2021/11/07 08:25:49;;;;;;;7.47;3.60;;;12.80;97.10;;;;;;5077978;28;20368;-72
2021/11/07 08:28:19;;;;;;;7.28;3.50;;;12.70;96.70;;;;;;5077285;28;20028;-71
2021/11/07 08:30:49;;;;;;;5.32;3.60;;;12.80;96.70;;;;;;5070830;28;20032;-71
2021/11/07 08:33:15;;;;;;;5.93;3.63;;;12.80;96.90;;;;;;5078468;28;20522;-72
2021/11/07 08:35:42;;;;;;;5.78;3.30;;;12.90;97.00;;;;;;5077249;28;20020;-72
2021/11/07 08:38:12;;;;;;;5.53;2.78;;;12.90;96.60;;;;;;5080894;28;20036;-71
2021/11/07 08:40:45;;;;;;;7.53;3.50;;;12.90;96.50;;;;;;5077973;28;20033;-72
2021/11/07 08:54:28;;;;;;;;;;;13.00;96.60;;;;;;5078953;28;20029;-72
2021/11/07 09:00:16;;;;;;;5.15;2.75;;;13.30;96.20;;;;;;5065109;28;20093;-72
2021/11/07 09:05:12;;;;;;;3.92;2.15;;;13.40;96.20;;;;;;5077853;28;20036;-71
2021/11/07 09:10:27;;;;;;;5.68;3.10;;;13.60;95.70;;;;;;5078068;28;20039;-72
2021/11/07 09:12:53;;;;;;;4.50;2.30;;;13.60;95.30;;;;;;5077531;28;20016;-72
2021/11/07 09:15:21;;;;;;;7.25;2.97;;;13.60;95.10;;;;;;5077446;28;20461;-72
2021/11/07 09:17:48;;;;;;;5.68;3.67;;;13.80;95.10;;;;;;5077474;28;20620;-72
2021/11/07 09:20:26;;;;;;;5.22;2.80;;;13.90;94.80;;;;;;5071222;28;20445;-72
2021/11/07 09:22:59;;;;;;;6.65;3.15;;;14.00;94.40;;;;;;5087643;28;20120;-72
2021/11/07 09:25:33;;;;;;;6.07;2.45;;;14.00;94.20;;;;;;5077977;28;20391;-72
2021/11/07 09:28:07;;;;;;;8.27;3.40;;;14.20;94.10;;;;;;5076902;28;20426;-72
2021/11/07 09:33:30;;;;;;;10.48;2.80;;;14.30;92.50;;;;;;5064818;28;20602;-72
2021/11/07 09:36:12;;;;;;;9.77;3.35;;;14.50;91.60;;;;;;5077418;28;20083;-71
2021/11/07 09:38:48;;;;;;;12.13;2.90;;;14.80;91.20;;;;;;5077595;28;20028;-71
2021/11/07 09:44:02;;;;;;;16.67;4.38;;;15.40;90.70;;;;;;5076512;28;20032;-72
2021/11/07 09:46:38;;;;;;;15.70;4.10;;;16.00;86.10;;;;;;5077137;28;20054;-71
2021/11/07 09:49:15;;;;;;;11.60;3.30;;;16.30;84.80;;;;;;5076220;28;20051;-72
2021/11/07 09:51:46;;;;;;;10.65;4.25;;;16.70;82.50;;;;;;5076946;28;20100;-71
2021/11/07 09:54:15;;;;;;;14.27;4.88;;;17.10;80.70;;;;;;5076464;28;20153;-72
2021/11/07 09:56:46;;;;;;;16.08;5.53;;;17.40;81.40;;;;;;5076571;28;20099;-72
2021/11/07 09:59:14;;;;;;;14.38;3.63;;;17.90;80.40;;;;;;5076953;28;20572;-72
2021/11/07 10:01:40;;;;;;;14.13;3.10;;;18.30;77.50;;;;;;5076886;28;20025;-71
2021/11/07 10:04:06;;;;;;;15.63;3.10;;;18.70;75.90;;;;;;5076691;28;20096;-72
2021/11/07 10:06:48;;;;;;;18.23;5.18;;;18.90;74.00;;;;;;5077077;28;20526;-72
2021/11/07 10:09:38;;;;;;;22.00;6.38;;;18.80;73.20;;;;;;5076421;28;20028;-72
2021/11/07 10:12:12;;;;;;;25.23;7.63;;;18.40;72.90;;;;;;5081052;28;20029;-72
2021/11/07 10:14:40;;;;;;;20.65;6.88;;;18.00;74.90;;;;;;5086091;28;20128;-72
2021/11/07 10:17:26;;;;;;;15.95;3.83;;;17.80;75.40;;;;;;5084659;28;20024;-72
2021/11/07 10:20:17;;;;;;;15.68;3.55;;;17.70;76.40;;;;;;5076265;28;20624;-72
2021/11/07 10:22:46;;;;;;;18.15;4.07;;;17.60;73.40;;;;;;5069490;28;20051;-72
2021/11/07 10:25:19;;;;;;;11.10;3.33;;;17.60;76.00;;;;;;5068506;28;20033;-72
2021/11/07 10:27:49;;;;;;;24.30;3.88;;;17.90;76.20;;;;;;5075758;28;20020;-72
2021/11/07 10:30:21;;;;;;;18.20;3.95;;;18.30;76.10;;;;;;5076861;28;20028;-72
2021/11/07 10:41:36;;;;;;;20.80;4.07;;;18.60;72.70;;;;;;5072934;28;20047;-72
2021/11/07 10:44:21;;;;;;;;;;;18.50;69.70;;;;;;5070388;28;20025;-71
2021/11/07 10:52:27;;;;;;;25.20;5.53;;;18.10;69.90;;;;;;5075974;28;20075;-72
2021/11/07 10:54:53;;;;;;;17.02;4.70;;;18.00;71.90;;;;;;5075269;28;20028;-72
2021/11/07 10:57:25;;;;;;;19.65;4.55;;;17.90;71.70;;;;;;5076275;28;20028;-71
2021/11/07 11:00:17;;;;;;;17.25;4.38;;;17.70;73.00;;;;;;5076396;28;20082;-71
2021/11/07 11:02:46;;;;;;;18.23;5.32;;;17.70;73.20;;;;;;5074752;28;20024;-72
2021/11/07 11:05:16;;;;;;;22.75;4.35;;;17.50;71.40;;;;;;5076028;28;20529;-72
2021/11/07 11:07:58;;;;;;;14.57;3.88;;;17.40;70.80;;;;;;5075908;28;20084;-71
2021/11/07 11:10:37;;;;;;;19.25;4.03;;;17.40;72.50;;;;;;5068226;28;20029;-72
2021/11/07 11:13:36;;;;;;;14.50;3.88;;;17.30;73.00;;;;;;5076051;28;20552;-71
2021/11/07 11:24:57;;;;;;;19.25;5.28;;;17.20;72.60;;;;;;5079366;28;20553;-70
2021/11/07 11:27:33;;;;;;;21.20;5.53;;;17.10;70.00;;;;;;5078763;28;20021;-71
2021/11/07 11:35:24;;;;;;;33.53;11.65;;;17.20;72.30;;;;;;5080038;28;20502;-71
2021/11/07 11:38:06;;;;;;;56.05;18.27;;;17.30;73.00;;;;;;5078938;28;20048;-70
2021/11/07 11:40:39;;;;;;;66.43;16.63;;;17.30;72.30;;;;;;5078823;28;20040;-70
2021/11/07 11:43:13;;;;;;;47.42;13.13;;;17.40;73.10;;;;;;5078989;28;20032;-70
2021/11/07 11:45:42;;;;;;;27.23;5.90;;;17.40;72.60;;;;;;5078906;28;20020;-70
2021/11/07 11:53:47;;;;;;;25.27;5.45;;;17.50;70.30;;;;;;5077259;28;20538;-74
2021/11/07 11:56:36;;;;;;;21.00;5.15;;;17.50;72.40;;;;;;5079619;28;20040;-70
2021/11/07 11:59:27;;;;;;;25.95;5.13;;;17.50;72.20;;;;;;5078796;28;20033;-69
2021/11/07 12:02:15;;;;;;;28.70;7.43;;;17.60;72.20;;;;;;5064399;28;20395;-71
2021/11/07 12:05:09;;;;;;;21.52;4.88;;;17.60;71.00;;;;;;5077890;28;20110;-71
2021/11/07 12:07:43;;;;;;;18.35;4.72;;;17.70;71.50;;;;;;5078980;28;20027;-71
2021/11/07 12:10:26;;;;;;;20.17;5.35;;;17.70;70.80;;;;;;5079111;28;20029;-71
2021/11/07 12:13:07;;;;;;;29.60;6.35;;;17.80;68.80;;;;;;5078270;28;20024;-72
2021/11/07 12:15:51;;;;;;;25.42;5.88;;;17.90;70.10;;;;;;5078582;28;20107;-72
2021/11/07 12:18:17;;;;;;;15.48;4.55;;;18.00;70.60;;;;;;5105337;28;20044;-72
2021/11/07 12:20:44;;;;;;;19.48;4.55;;;18.10;71.20;;;;;;5078257;28;20028;-71
2021/11/07 12:23:23;;;;;;;21.15;6.28;;;18.30;71.70;;;;;;5078566;28;20055;-71
2021/11/07 12:25:50;;;;;;;24.17;4.05;;;18.30;71.30;;;;;;5090608;28;20028;-71
2021/11/07 12:28:18;;;;;;;24.05;5.10;;;18.30;70.30;;;;;;5076870;28;20024;-71
2021/11/07 12:30:45;;;;;;;19.45;5.45;;;18.20;71.00;;;;;;5069775;28;20439;-72
2021/11/07 12:33:23;;;;;;;18.42;5.30;;;18.20;71.70;;;;;;5072517;28;20020;-80
2021/11/07 12:41:12;;;;;;;20.42;4.18;;;18.20;70.60;;;;;;5078644;28;20035;-74
2021/11/07 12:43:41;;;;;;;20.60;4.25;;;18.00;67.10;;;;;;5077988;28;20024;-74
2021/11/07 12:49:16;;;;;;;16.23;4.65;;;17.60;67.20;;;;;;5077911;28;20017;-74
2021/11/07 12:51:44;;;;;;;42.15;14.65;;;17.50;68.80;;;;;;5067511;28;20106;-75
2021/11/07 12:54:15;;;;;;;22.48;6.40;;;17.40;69.60;;;;;;5077636;28;20035;-74
2021/11/07 12:56:46;;;;;;;21.92;4.13;;;17.50;69.70;;;;;;5067678;28;20028;-73
2021/11/07 12:59:19;;;;;;;22.73;3.90;;;17.70;69.80;;;;;;5077554;28;20025;-73
2021/11/07 13:01:55;;;;;;;14.60;4.30;;;17.80;69.40;;;;;;5068039;28;20087;-73
2021/11/07 13:04:23;;;;;;;19.92;4.80;;;17.80;69.80;;;;;;5077658;28;20077;-73
2021/11/07 13:06:55;;;;;;;21.38;4.53;;;17.80;68.70;;;;;;5074507;28;20013;-72
2021/11/07 13:09:26;;;;;;;19.02;4.80;;;17.70;69.90;;;;;;5077522;28;20020;-72
2021/11/07 13:11:57;;;;;;;22.70;4.72;;;17.70;70.30;;;;;;5077227;28;20031;-72
2021/11/07 13:14:49;;;;;;;18.88;4.97;;;17.70;70.60;;;;;;5077652;28;20077;-72
2021/11/07 13:20:13;;;;;;;24.80;4.88;;;17.70;71.40;;;;;;5074825;28;20036;-77
2021/11/07 13:23:03;;;;;;;19.88;4.68;;;17.70;71.60;;;;;;5070559;28;20025;-76
2021/11/07 13:25:45;;;;;;;14.18;3.72;;;17.70;71.30;;;;;;5073504;28;20032;-74
2021/11/07 13:31:15;;;;;;;24.83;6.10;;;17.60;71.00;;;;;;5071628;28;20521;-78
2021/11/07 13:33:42;;;;;;;17.80;3.83;;;17.50;69.30;;;;;;5075770;28;20552;-73
2021/11/07 13:36:14;;;;;;;22.83;3.60;;;17.50;70.10;;;;;;5076942;28;20045;-74
2021/11/07 13:39:03;;;;;;;27.75;4.38;;;17.40;69.10;;;;;;5075919;28;20032;-72
2021/11/07 13:41:29;;;;;;;23.00;5.72;;;17.30;70.70;;;;;;5069141;28;20036;-72
2021/11/07 13:44:09;;;;;;;75.80;28.30;;;17.20;71.20;;;;;;5075890;28;20032;-74
2021/11/07 13:46:37;;;;;;;63.45;32.58;;;17.10;71.60;;;;;;5076369;28;20025;-73
2021/11/07 13:49:06;;;;;;;43.40;19.60;;;17.00;71.00;;;;;;5073472;28;20074;-71
2021/11/07 13:51:51;;;;;;;29.10;9.20;;;16.90;70.90;;;;;;5072835;28;20058;-71
2021/11/07 13:54:17;;;;;;;30.85;5.25;;;16.80;71.10;;;;;;5064589;28;20025;-71
2021/11/07 13:56:47;;;;;;;29.90;5.03;;;16.70;71.50;;;;;;5077105;28;20029;-71
2021/11/07 13:59:30;;;;;;;26.98;5.05;;;16.60;72.20;;;;;;5076838;28;20032;-72
2021/11/07 14:01:57;;;;;;;22.98;4.50;;;16.60;72.70;;;;;;5075910;28;20021;-72
2021/11/07 14:04:22;;;;;;;21.30;4.50;;;16.60;73.00;;;;;;5076339;28;20019;-72
2021/11/07 14:06:49;;;;;;;23.67;4.40;;;16.60;73.40;;;;;;5076870;28;20483;-72
2021/11/07 14:09:17;;;;;;;20.98;4.22;;;16.50;73.40;;;;;;5077179;28;20040;-72
2021/11/07 14:11:43;;;;;;;22.27;4.35;;;16.50;73.60;;;;;;5075485;28;20021;-71
2021/11/07 14:14:12;;;;;;;16.63;5.35;;;16.50;73.30;;;;;;5076795;28;20035;-71
2021/11/07 14:16:58;;;;;;;23.42;4.40;;;16.50;72.50;;;;;;5074606;28;20031;-71
2021/11/07 14:19:24;;;;;;;25.13;5.60;;;16.50;72.90;;;;;;5076500;28;20438;-72
2021/11/07 14:21:51;;;;;;;28.80;8.30;;;16.50;71.10;;;;;;5072789;28;20030;-71
2021/11/07 14:26:56;;;;;;;26.52;7.25;;;16.40;71.60;;;;;;5074906;28;20111;-71
2021/11/07 14:29:42;;;;;;;24.63;5.90;;;16.40;71.80;;;;;;5076682;28;20017;-72
2021/11/07 14:32:24;;;;;;;18.65;6.22;;;16.40;72.40;;;;;;5076344;28;20456;-71
2021/11/07 14:35:38;;;;;;;17.92;5.55;;;16.40;73.10;;;;;;5075149;28;20035;-72
2021/11/07 14:38:01;;;;;;;19.90;5.95;;;16.40;73.30;;;;;;5075468;28;20040;-72
2021/11/07 14:43:13;;;;;;;19.67;6.25;;;16.30;72.00;;;;;;5068214;28;20032;-75
2021/11/07 14:45:47;;;;;;;26.45;9.13;;;16.20;72.60;;;;;;5071626;28;20073;-71
2021/11/07 14:48:35;;;;;;;28.88;11.60;;;16.20;73.10;;;;;;5076154;28;20017;-70
2021/11/07 14:56:46;;;;;;;31.85;8.55;;;16.00;72.50;;;;;;5080517;28;20463;-71
2021/11/07 14:59:37;;;;;;;25.17;7.88;;;16.00;71.80;;;;;;5080598;28;20067;-70
2021/11/07 15:05:00;;;;;;;22.30;6.10;;;15.80;72.30;;;;;;5079772;28;20020;-72
2021/11/07 15:16:49;;;;;;;30.95;9.75;;;15.70;74.20;;;;;;5077885;28;20410;-67
2021/11/07 15:19:26;;;;;;;25.98;7.28;;;15.60;74.40;;;;;;5075575;28;20175;-66
2021/11/07 15:22:10;;;;;;;24.50;9.23;;;15.60;74.20;;;;;;5080164;28;20035;-66
2021/11/07 15:24:42;;;;;;;22.08;7.80;;;15.60;73.90;;;;;;5078995;28;20106;-67